Mino, Spain
Current Conditions -  °F | °C
As of 10:00 PM on Tuesday 27 Jan 2015 (Local Time) from LECO Reporting Station
Broken Clouds Broken Clouds  
Wind Chill: 52°   Ceiling: 3200
Heat Index: 52°   Visibility: 6mi
Dew Point: 41°   Wind: 7mph
Humidity: 67%   Direction: 360°N
Pressure: 30.5"   Gusts: NA
Location:  43.35°N, 8.2°W
Report Text: LECO 272100Z 36006KT 320V030 9999 BKN032 11/05 Q1033 NOSIG
Loading
Personal Weather Stations






























Interactive Weather Map New forecast layout! Learn more

10-Day Weather Forecast

Advertisements
Track Severe Weather on mobile